createdAt,value
2018-02-25T00:01:26.359Z,4.03
2018-02-25T00:03:54.049Z,3.47
2018-02-25T00:06:21.788Z,3.15
2018-02-25T00:08:49.552Z,4.62
2018-02-25T00:11:17.316Z,3.95
2018-02-25T00:13:45.081Z,4.10
2018-02-25T00:16:12.804Z,5.32
2018-02-25T00:18:40.555Z,4.78
2018-02-25T00:21:08.220Z,3.30
2018-02-25T00:23:35.922Z,2.75
2018-02-25T00:26:03.704Z,3.20
2018-02-25T00:28:31.468Z,2.33
2018-02-25T00:30:59.240Z,3.15
2018-02-25T00:33:26.948Z,12.50
2018-02-25T00:35:54.628Z,2.92
2018-02-25T00:38:22.328Z,3.72
2018-02-25T00:40:50.101Z,3.70
2018-02-25T00:43:17.860Z,3.60
2018-02-25T00:45:45.543Z,3.83
2018-02-25T00:48:13.574Z,2.90
2018-02-25T00:50:41.280Z,3.40
2018-02-25T00:53:09.023Z,5.60
2018-02-25T00:55:36.728Z,5.68
2018-02-25T00:58:04.452Z,5.05
2018-02-25T01:00:32.212Z,3.70
2018-02-25T01:02:59.884Z,2.60
2018-02-25T01:05:27.644Z,3.12
2018-02-25T01:07:55.332Z,3.28
2018-02-25T01:10:23.029Z,2.53
2018-02-25T01:12:50.703Z,2.28
2018-02-25T01:15:18.504Z,4.30
2018-02-25T01:17:46.188Z,2.45
2018-02-25T01:20:13.912Z,2.62
2018-02-25T01:22:41.588Z,2.55
2018-02-25T01:25:09.264Z,2.65
2018-02-25T01:27:36.972Z,2.20
2018-02-25T01:30:04.652Z,6.50
2018-02-25T01:32:32.349Z,2.42
2018-02-25T01:35:00.069Z,2.25
2018-02-25T01:37:27.772Z,2.90
2018-02-25T01:39:55.552Z,2.97
2018-02-25T01:42:23.256Z,3.20
2018-02-25T01:44:50.944Z,3.65
2018-02-25T01:47:18.649Z,3.70
2018-02-25T01:49:46.498Z,2.65
2018-02-25T01:52:14.253Z,5.65
2018-02-25T01:54:41.932Z,3.65
2018-02-25T01:57:09.698Z,4.85
2018-02-25T01:59:37.459Z,6.50
2018-02-25T02:02:05.224Z,2.65
2018-02-25T02:04:32.928Z,3.00
2018-02-25T02:07:00.608Z,3.42
2018-02-25T02:09:28.425Z,2.40
2018-02-25T02:11:56.188Z,3.60
2018-02-25T02:14:23.883Z,5.65
2018-02-25T02:16:51.564Z,3.62
2018-02-25T02:19:19.375Z,2.53
2018-02-25T02:21:47.149Z,15.25
2018-02-25T02:24:14.832Z,4.30
2018-02-25T02:26:42.540Z,2.87
2018-02-25T02:29:10.226Z,3.08
2018-02-25T02:31:37.929Z,3.50
2018-02-25T02:34:05.609Z,2.95
2018-02-25T02:36:33.317Z,7.45
2018-02-25T02:39:01.941Z,2.60
2018-02-25T02:41:29.644Z,2.60
2018-02-25T02:43:57.325Z,2.97
2018-02-25T02:46:25.029Z,2.08
2018-02-25T02:48:52.772Z,2.75
2018-02-25T02:51:20.488Z,2.65
2018-02-25T02:53:48.173Z,2.85
2018-02-25T02:56:15.905Z,5.82
2018-02-25T02:58:43.624Z,4.87
2018-02-25T03:01:11.396Z,2.80
2018-02-25T03:03:39.118Z,2.97
2018-02-25T03:06:06.806Z,5.12
2018-02-25T03:08:34.520Z,10.32
2018-02-25T03:11:02.255Z,3.33
2018-02-25T03:13:29.952Z,2.67
2018-02-25T03:15:57.637Z,2.58
2018-02-25T03:18:25.444Z,3.58
2018-02-25T03:20:53.124Z,3.03
2018-02-25T03:23:20.824Z,2.50
2018-02-25T03:25:48.504Z,2.60
2018-02-25T03:28:16.209Z,2.83
2018-02-25T03:30:43.966Z,3.42
2018-02-25T03:33:11.640Z,3.03
2018-02-25T03:35:39.388Z,2.95
2018-02-25T03:38:07.070Z,2.50
2018-02-25T03:40:34.777Z,2.65
2018-02-25T03:43:02.457Z,3.10
2018-02-25T03:45:30.160Z,3.92
2018-02-25T03:47:57.913Z,2.53
2018-02-25T03:50:25.676Z,2.85
2018-02-25T03:52:53.368Z,2.75
2018-02-25T03:55:21.110Z,2.90
2018-02-25T03:57:48.801Z,2.12
2018-02-25T04:00:16.532Z,3.00
2018-02-25T04:02:44.297Z,3.22
2018-02-25T04:05:12.038Z,3.67
2018-02-25T04:07:39.720Z,2.72
2018-02-25T04:10:07.502Z,2.90
2018-02-25T04:12:35.201Z,3.65
2018-02-25T04:15:02.926Z,3.03
2018-02-25T04:17:30.632Z,5.10
2018-02-25T04:19:58.348Z,5.47
2018-02-25T04:22:26.054Z,4.30
2018-02-25T04:24:53.741Z,5.28
2018-02-25T04:27:21.444Z,2.60
2018-02-25T04:29:49.132Z,2.03
2018-02-25T04:32:16.833Z,3.97
2018-02-25T04:34:44.525Z,10.00
2018-02-25T04:37:12.228Z,2.95
2018-02-25T04:39:39.960Z,5.53
2018-02-25T04:42:07.719Z,3.20
2018-02-25T04:44:35.496Z,2.90
2018-02-25T04:47:03.251Z,2.60
2018-02-25T04:49:31.016Z,2.58
2018-02-25T04:51:58.784Z,3.08
2018-02-25T04:54:26.464Z,2.90
2018-02-25T04:56:54.217Z,3.42
2018-02-25T04:59:21.924Z,2.60
2018-02-25T05:01:49.603Z,4.85
2018-02-25T05:04:17.420Z,3.37
2018-02-25T05:06:45.177Z,3.70
2018-02-25T05:09:12.876Z,5.10
2018-02-25T05:11:40.561Z,3.00
2018-02-25T05:14:08.266Z,3.97
2018-02-25T05:16:35.953Z,3.10
2018-02-25T05:19:03.660Z,2.12
2018-02-25T05:21:31.353Z,2.45
2018-02-25T05:23:59.125Z,3.70
2018-02-25T05:26:26.804Z,6.70
2018-02-25T05:28:54.505Z,2.67
2018-02-25T05:31:22.200Z,2.60
2018-02-25T05:33:49.883Z,4.43
2018-02-25T05:36:17.589Z,3.72
2018-02-25T05:38:45.270Z,5.93
2018-02-25T05:41:12.977Z,3.03
2018-02-25T05:43:40.789Z,3.35
2018-02-25T05:46:08.493Z,3.72
2018-02-25T05:48:36.187Z,3.50
2018-02-25T05:51:03.896Z,3.72
2018-02-25T05:53:31.582Z,3.40
2018-02-25T05:55:59.347Z,4.20
2018-02-25T05:58:27.031Z,6.45
2018-02-25T06:00:54.748Z,4.32
2018-02-25T06:03:22.429Z,5.47
2018-02-25T06:05:50.128Z,3.72
2018-02-25T06:08:17.878Z,4.00
2018-02-25T06:10:45.585Z,4.30
2018-02-25T06:13:13.268Z,6.28
2018-02-25T06:15:41.069Z,11.40
2018-02-25T06:18:08.804Z,4.40
2018-02-25T06:20:36.480Z,3.85
2018-02-25T06:23:04.237Z,10.30
2018-02-25T06:25:31.923Z,4.32
2018-02-25T06:27:59.633Z,4.03
2018-02-25T06:30:27.308Z,3.33
2018-02-25T06:32:55.132Z,2.97
2018-02-25T06:35:22.808Z,3.50
2018-02-25T06:37:50.544Z,3.00
2018-02-25T06:40:18.226Z,2.85
2018-02-25T06:42:45.939Z,3.10
2018-02-25T06:45:13.626Z,10.93
2018-02-25T06:47:41.336Z,3.75
2018-02-25T06:50:09.026Z,4.53
2018-02-25T06:52:36.829Z,2.10
2018-02-25T06:55:04.594Z,3.25
2018-02-25T06:57:32.296Z,6.22
2018-02-25T06:59:59.979Z,3.58
2018-02-25T07:02:27.788Z,3.50
2018-02-25T07:04:55.551Z,3.22
2018-02-25T07:07:23.320Z,3.35
2018-02-25T07:09:51.081Z,6.85
2018-02-25T07:12:18.853Z,2.55
2018-02-25T07:14:46.560Z,2.35
2018-02-25T07:17:14.272Z,2.97
2018-02-25T07:19:41.972Z,4.05
2018-02-25T07:22:09.704Z,3.75
2018-02-25T07:24:37.468Z,3.75
2018-02-25T07:27:05.149Z,4.00
2018-02-25T07:29:32.895Z,2.83
2018-02-25T07:32:00.578Z,3.90
2018-02-25T07:34:28.325Z,3.62
2018-02-25T07:36:56.087Z,8.25
2018-02-25T07:39:23.792Z,4.32
2018-02-25T07:41:51.477Z,4.40
2018-02-25T07:44:19.188Z,4.65
2018-02-25T07:46:46.872Z,3.92
2018-02-25T07:49:14.607Z,4.78
2018-02-25T07:51:42.283Z,4.70
2018-02-25T07:54:10.041Z,4.37
2018-02-25T07:56:37.741Z,4.60
2018-02-25T07:59:05.473Z,6.85
2018-02-25T08:01:33.156Z,2.92
2018-02-25T08:04:00.879Z,5.18
2018-02-25T08:06:28.557Z,5.05
2018-02-25T08:08:56.240Z,2.70
2018-02-25T08:11:23.968Z,3.10
2018-02-25T08:13:51.648Z,3.08
2018-02-25T08:16:19.357Z,2.75
2018-02-25T08:18:47.075Z,2.92
2018-02-25T08:21:14.849Z,2.87
2018-02-25T08:23:42.613Z,2.92
2018-02-25T08:26:10.321Z,6.03
2018-02-25T08:28:38.044Z,2.78
2018-02-25T08:31:05.744Z,3.25
2018-02-25T08:33:33.428Z,5.65
2018-02-25T08:36:01.136Z,4.05
2018-02-25T08:38:28.821Z,4.03
2018-02-25T08:40:56.556Z,5.28
2018-02-25T08:43:24.320Z,5.57
2018-02-25T08:45:52.092Z,3.70
2018-02-25T08:48:19.809Z,4.10
2018-02-25T08:50:47.489Z,4.70
2018-02-25T08:53:15.201Z,6.55
2018-02-25T08:55:42.948Z,3.75
2018-02-25T08:58:10.708Z,4.50
2018-02-25T09:00:38.393Z,5.75
2018-02-25T09:03:06.105Z,7.22
2018-02-25T09:05:33.792Z,10.00
2018-02-25T09:08:01.559Z,4.28
2018-02-25T09:10:29.337Z,6.82
2018-02-25T09:12:57.078Z,8.35
2018-02-25T09:15:24.859Z,4.70
2018-02-25T09:17:52.557Z,4.65
2018-02-25T09:20:20.284Z,3.20
2018-02-25T09:22:48.060Z,8.80
2018-02-25T09:25:15.825Z,4.30
2018-02-25T09:27:43.589Z,3.72
2018-02-25T09:30:11.332Z,9.68
2018-02-25T09:32:39.016Z,8.70
2018-02-25T09:35:06.771Z,6.90
2018-02-25T09:37:34.456Z,3.70
2018-02-25T09:40:02.199Z,4.22
2018-02-25T09:42:29.888Z,5.95
2018-02-25T09:44:57.596Z,4.95
2018-02-25T09:47:25.275Z,5.18
2018-02-25T09:49:53.065Z,4.55
2018-02-25T09:52:20.750Z,3.30
2018-02-25T09:54:48.478Z,3.83
2018-02-25T09:57:16.164Z,4.30
2018-02-25T09:59:43.920Z,3.87
2018-02-25T10:02:11.628Z,4.62
2018-02-25T10:04:39.329Z,4.22
2018-02-25T10:07:07.112Z,12.23
2018-02-25T10:09:34.897Z,4.70
2018-02-25T10:12:02.645Z,4.37
2018-02-25T10:14:30.404Z,4.00
2018-02-25T10:16:58.068Z,3.70
2018-02-25T10:19:25.752Z,5.37
2018-02-25T10:21:53.503Z,4.67
2018-02-25T10:24:21.264Z,8.15
2018-02-25T10:26:48.996Z,7.03
2018-02-25T10:29:16.596Z,5.07
2018-02-25T10:31:44.198Z,8.30
2018-02-25T10:34:11.829Z,7.20
2018-02-25T10:36:39.450Z,5.73
2018-02-25T10:39:07.068Z,5.83
2018-02-25T10:41:34.667Z,5.00
2018-02-25T10:44:02.367Z,5.67
2018-02-25T10:46:29.969Z,5.47
2018-02-25T10:48:57.684Z,5.00
2018-02-25T10:51:25.356Z,5.83
2018-02-25T10:53:53.013Z,5.70
2018-02-25T10:56:20.669Z,6.07
2018-02-25T10:58:48.293Z,6.73
2018-02-25T11:01:15.896Z,5.20
2018-02-25T11:03:43.525Z,6.23
2018-02-25T11:06:11.136Z,5.83
2018-02-25T11:08:38.746Z,4.83
2018-02-25T11:11:06.372Z,5.97
2018-02-25T11:13:33.972Z,7.30
2018-02-25T11:16:01.596Z,3.37
2018-02-25T11:18:29.227Z,5.07
2018-02-25T11:20:56.852Z,7.63
2018-02-25T11:23:24.461Z,10.30
2018-02-25T11:25:52.088Z,6.47
2018-02-25T11:28:19.709Z,9.27
2018-02-25T11:30:47.335Z,9.10
2018-02-25T11:33:14.936Z,3.53
2018-02-25T11:35:42.671Z,2.63
2018-02-25T11:38:10.333Z,3.00
2018-02-25T11:40:37.965Z,1.93
2018-02-25T11:43:05.652Z,1.97
2018-02-25T11:45:33.316Z,3.03
2018-02-25T11:48:00.940Z,4.33
2018-02-25T11:50:28.554Z,2.30
2018-02-25T11:52:56.186Z,1.70
2018-02-25T11:55:23.937Z,2.60
2018-02-25T11:57:51.628Z,2.00
2018-02-25T12:00:19.243Z,2.10
2018-02-25T12:02:46.890Z,2.80
2018-02-25T12:05:14.515Z,1.30
2018-02-25T12:07:42.293Z,1.60
2018-02-25T12:10:09.976Z,2.40
2018-02-25T12:12:37.709Z,0.98
2018-02-25T12:15:05.321Z,2.60
2018-02-25T12:17:33.040Z,0.83
2018-02-25T12:20:00.643Z,3.07
2018-02-25T12:22:28.362Z,1.43
2018-02-25T12:24:55.998Z,6.10
2018-02-25T12:27:23.604Z,2.40
2018-02-25T12:29:51.244Z,1.57
2018-02-25T12:32:18.932Z,1.45
2018-02-25T12:34:46.640Z,1.35
2018-02-25T12:37:14.246Z,1.60
2018-02-25T12:39:41.944Z,1.40
2018-02-25T12:42:09.624Z,2.45
2018-02-25T12:44:37.323Z,1.10
2018-02-25T12:47:05.006Z,1.02
2018-02-25T12:49:32.708Z,1.30
2018-02-25T12:52:00.414Z,1.07
2018-02-25T12:54:28.136Z,1.10
2018-02-25T12:56:55.853Z,1.00
2018-02-25T12:59:23.608Z,2.17
2018-02-25T13:01:51.284Z,1.30
2018-02-25T13:04:18.945Z,0.83
2018-02-25T13:06:46.569Z,1.00
2018-02-25T13:09:14.168Z,3.93
2018-02-25T13:11:41.792Z,0.60
2018-02-25T13:14:09.397Z,3.30
2018-02-25T13:16:37.048Z,0.90
2018-02-25T13:19:04.665Z,3.53
2018-02-25T13:21:32.291Z,0.80
2018-02-25T13:24:00.037Z,1.50
2018-02-25T13:26:27.744Z,1.20
2018-02-25T13:28:55.423Z,1.35
2018-02-25T13:31:23.225Z,0.90
2018-02-25T13:33:50.905Z,1.07
2018-02-25T13:36:18.665Z,1.17
2018-02-25T13:38:46.272Z,0.93
2018-02-25T13:41:13.892Z,0.90
2018-02-25T13:43:41.548Z,1.03
2018-02-25T13:46:09.207Z,1.60
2018-02-25T13:48:36.893Z,1.33
2018-02-25T13:51:04.535Z,0.90
2018-02-25T13:53:32.165Z,1.43
2018-02-25T13:55:59.768Z,2.00
2018-02-25T13:58:27.418Z,3.53
2018-02-25T14:00:55.079Z,0.80
2018-02-25T14:03:22.743Z,11.83
2018-02-25T14:05:50.358Z,0.90
2018-02-25T14:08:17.976Z,0.87
2018-02-25T14:10:45.632Z,0.70
2018-02-25T14:13:13.302Z,2.53
2018-02-25T14:15:40.906Z,1.30
2018-02-25T14:18:08.604Z,4.43
2018-02-25T14:20:36.280Z,2.90
2018-02-25T14:23:04.048Z,1.08
2018-02-25T14:25:31.741Z,1.10
2018-02-25T14:27:59.426Z,0.95
2018-02-25T14:30:27.135Z,1.75
2018-02-25T14:32:54.829Z,1.10
2018-02-25T14:35:22.796Z,8.77
2018-02-25T14:37:50.480Z,14.25
2018-02-25T14:40:18.200Z,1.45
2018-02-25T14:42:45.888Z,1.20
2018-02-25T14:45:13.631Z,1.42
2018-02-25T14:47:41.402Z,1.45
2018-02-25T14:50:09.166Z,1.60
2018-02-25T14:52:38.261Z,1.05
2018-02-25T14:55:06.024Z,2.85
2018-02-25T14:57:33.792Z,1.30
2018-02-25T15:00:01.497Z,3.45
2018-02-25T15:02:29.220Z,2.05
2018-02-25T15:04:56.945Z,1.70
2018-02-25T15:07:24.624Z,2.78
2018-02-25T15:09:52.304Z,2.40
2018-02-25T15:12:20.077Z,2.28
2018-02-25T15:14:47.911Z,2.37
2018-02-25T15:17:15.616Z,2.37
2018-02-25T15:19:43.377Z,2.65
2018-02-25T15:22:11.097Z,2.58
2018-02-25T15:24:38.781Z,2.70
2018-02-25T15:27:06.569Z,3.22
2018-02-25T15:29:34.332Z,3.62
2018-02-25T15:32:02.040Z,3.55
2018-02-25T15:34:29.858Z,2.97
2018-02-25T15:36:57.582Z,3.33
2018-02-25T15:39:25.293Z,3.37
2018-02-25T15:41:53.057Z,3.78
2018-02-25T15:44:20.753Z,3.15
2018-02-25T15:46:48.455Z,2.85
2018-02-25T15:49:16.139Z,3.35
2018-02-25T15:51:43.846Z,3.50
2018-02-25T15:54:11.569Z,3.95
2018-02-25T15:56:39.335Z,3.20
2018-02-25T15:59:07.012Z,3.83
2018-02-25T16:01:35.620Z,3.70
2018-02-25T16:04:03.357Z,4.82
2018-02-25T16:06:31.037Z,3.50
2018-02-25T16:08:58.789Z,3.17
2018-02-25T16:11:26.582Z,3.53
2018-02-25T16:13:54.277Z,4.28
2018-02-25T16:16:21.971Z,4.07
2018-02-25T16:18:49.677Z,4.03
2018-02-25T16:21:17.405Z,4.80
2018-02-25T16:23:45.164Z,4.75
2018-02-25T16:26:12.848Z,5.50
2018-02-25T16:28:40.573Z,11.75
2018-02-25T16:31:08.366Z,8.98
2018-02-25T16:33:36.097Z,6.45
2018-02-25T16:36:04.833Z,4.87
2018-02-25T16:38:32.677Z,5.53
2018-02-25T16:41:00.380Z,3.67
2018-02-25T16:43:28.107Z,5.03
2018-02-25T16:45:55.808Z,4.05
2018-02-25T16:48:23.540Z,4.12
2018-02-25T16:50:51.245Z,3.40
2018-02-25T16:53:18.933Z,4.10
2018-02-25T16:55:46.634Z,4.22
2018-02-25T16:58:14.400Z,9.43
2018-02-25T17:00:42.160Z,3.72
2018-02-25T17:03:09.924Z,3.72
2018-02-25T17:05:37.633Z,4.60
2018-02-25T17:08:05.321Z,5.10
2018-02-25T17:10:33.043Z,4.32
2018-02-25T17:13:00.785Z,4.62
2018-02-25T17:15:28.553Z,7.93
2018-02-25T17:17:56.262Z,6.55
2018-02-25T17:20:23.944Z,4.95
2018-02-25T17:22:51.744Z,5.05
2018-02-25T17:25:19.428Z,13.43
2018-02-25T17:27:47.169Z,7.72
2018-02-25T17:30:14.940Z,6.00
2018-02-25T17:32:42.640Z,6.78
2018-02-25T17:35:10.374Z,5.75
2018-02-25T17:37:38.093Z,6.07
2018-02-25T17:40:05.796Z,5.45
2018-02-25T17:42:33.507Z,4.87
2018-02-25T17:45:01.188Z,5.15
2018-02-25T17:47:28.912Z,6.22
2018-02-25T17:49:56.644Z,5.20
2018-02-25T17:52:24.333Z,5.93
2018-02-25T17:54:52.082Z,7.10
2018-02-25T17:57:19.847Z,19.00
2018-02-25T17:59:47.608Z,23.60
2018-02-25T18:02:15.367Z,20.58
2018-02-25T18:04:43.077Z,17.45
2018-02-25T18:07:10.808Z,6.85
2018-02-25T18:09:38.571Z,7.28
2018-02-25T18:12:06.329Z,6.95
2018-02-25T18:14:34.101Z,9.18
2018-02-25T18:17:01.860Z,5.93
2018-02-25T18:19:29.658Z,6.57
2018-02-25T18:24:36.730Z,6.50
2018-02-25T18:27:04.492Z,9.63
2018-02-25T18:29:32.204Z,7.37
2018-02-25T18:31:59.892Z,11.18
2018-02-25T18:34:27.624Z,6.75
2018-02-25T18:36:55.304Z,6.90
2018-02-25T18:39:23.024Z,6.37
2018-02-25T18:41:50.777Z,8.48
2018-02-25T18:44:18.549Z,6.85
2018-02-25T18:46:46.256Z,8.30
2018-02-25T18:49:13.978Z,8.15
2018-02-25T18:51:41.745Z,12.07
2018-02-25T18:54:09.499Z,9.48
2018-02-25T18:56:37.200Z,7.37
2018-02-25T18:59:04.936Z,5.93
2018-02-25T19:01:32.701Z,7.28
2018-02-25T19:04:00.460Z,8.50
2018-02-25T19:06:28.229Z,8.88
2018-02-25T19:08:55.992Z,8.13
2018-02-25T19:11:23.720Z,8.57
2018-02-25T19:13:51.425Z,9.90
2018-02-25T19:16:19.243Z,9.85
2018-02-25T19:18:46.971Z,12.48
2018-02-25T19:21:14.665Z,10.70
2018-02-25T19:23:42.489Z,11.65
2018-02-25T19:26:10.247Z,9.27
2018-02-25T19:28:37.950Z,11.20
2018-02-25T19:31:05.685Z,10.07
2018-02-25T19:33:33.398Z,7.60
2018-02-25T19:39:09.492Z,9.88
2018-02-25T19:41:42.841Z,9.18
2018-02-25T19:44:10.584Z,10.63
2018-02-25T19:46:38.285Z,16.62
2018-02-25T19:49:06.016Z,16.20
2018-02-25T19:51:33.776Z,16.70
2018-02-25T19:54:01.556Z,10.27
2018-02-25T19:56:29.316Z,11.82
2018-02-25T19:58:57.010Z,12.00
2018-02-25T20:01:24.723Z,7.37
2018-02-25T20:03:52.504Z,4.47
2018-02-25T20:06:20.264Z,4.90
2018-02-25T20:08:48.028Z,5.07
2018-02-25T20:11:15.802Z,4.95
2018-02-25T20:13:43.496Z,4.32
2018-02-25T20:16:11.201Z,4.37
2018-02-25T20:18:38.927Z,6.03
2018-02-25T20:21:06.632Z,5.00
2018-02-25T20:23:34.312Z,6.47
2018-02-25T20:26:02.085Z,7.68
2018-02-25T20:28:29.765Z,4.50
2018-02-25T20:30:57.513Z,8.60
2018-02-25T20:33:25.228Z,5.43
2018-02-25T20:35:53.032Z,10.43
2018-02-25T20:38:20.708Z,5.97
2018-02-25T20:40:48.470Z,8.82
2018-02-25T20:43:16.172Z,6.68
2018-02-25T20:45:43.985Z,5.65
2018-02-25T20:48:11.693Z,3.67
2018-02-25T20:50:39.426Z,4.82
2018-02-25T20:53:07.137Z,5.78
2018-02-25T20:55:34.950Z,4.70
2018-02-25T20:58:02.724Z,5.60
2018-02-25T21:00:30.489Z,4.65
2018-02-25T21:02:58.248Z,3.97
2018-02-25T21:05:25.933Z,7.12
2018-02-25T21:07:53.724Z,4.90
2018-02-25T21:10:21.457Z,6.22
2018-02-25T21:12:49.141Z,5.93
2018-02-25T21:15:16.855Z,15.77
2018-02-25T21:17:43.832Z,18.40
2018-02-25T21:20:11.541Z,9.10
2018-02-25T21:22:39.220Z,6.60
2018-02-25T21:25:06.933Z,3.15
2018-02-25T21:27:34.681Z,4.95
2018-02-25T21:30:02.393Z,3.15
2018-02-25T21:32:30.068Z,3.95
2018-02-25T21:34:57.776Z,9.60
2018-02-25T21:37:25.534Z,5.20
2018-02-25T21:39:53.253Z,3.78
2018-02-25T21:42:20.956Z,3.90
2018-02-25T21:44:48.728Z,3.45
2018-02-25T21:47:16.501Z,3.25
2018-02-25T21:49:44.184Z,5.12
2018-02-25T21:52:11.921Z,7.07
2018-02-25T21:54:45.357Z,3.72
2018-02-25T21:57:18.591Z,3.22
2018-02-25T22:03:11.529Z,6.32
2018-02-25T22:05:39.220Z,5.53
2018-02-25T22:08:07.019Z,7.93
2018-02-25T22:10:34.786Z,9.00
2018-02-25T22:13:02.557Z,4.05
2018-02-25T22:15:30.312Z,4.87
2018-02-25T22:17:58.031Z,8.55
2018-02-25T22:20:25.748Z,5.32
2018-02-25T22:22:53.462Z,5.57
2018-02-25T22:25:21.168Z,4.65
2018-02-25T22:27:48.932Z,5.37
2018-02-25T22:30:16.660Z,4.55
2018-02-25T22:32:44.369Z,5.30
2018-02-25T22:35:12.129Z,5.80
2018-02-25T22:37:39.899Z,5.03
2018-02-25T22:40:07.657Z,7.60
2018-02-25T22:42:35.348Z,8.00
2018-02-25T22:45:03.083Z,5.28
2018-02-25T22:47:30.760Z,6.50
2018-02-25T22:49:58.518Z,9.13
2018-02-25T22:52:26.280Z,4.75
2018-02-25T22:54:53.984Z,3.85
2018-02-25T22:57:21.688Z,3.58
2018-02-25T22:59:49.407Z,3.80
2018-02-25T23:02:17.138Z,3.78
2018-02-25T23:04:44.895Z,3.53
2018-02-25T23:07:12.604Z,5.55
2018-02-25T23:09:40.297Z,6.90
2018-02-25T23:12:07.993Z,4.10
2018-02-25T23:14:35.760Z,4.90
2018-02-25T23:17:03.461Z,5.03
2018-02-25T23:19:31.188Z,3.87
2018-02-25T23:21:58.948Z,4.03
2018-02-25T23:24:26.711Z,3.65
2018-02-25T23:26:54.452Z,3.35
2018-02-25T23:29:22.117Z,3.33
2018-02-25T23:31:49.908Z,3.65
2018-02-25T23:34:17.592Z,4.68
2018-02-25T23:36:45.335Z,4.22
2018-02-25T23:39:13.039Z,3.65
2018-02-25T23:41:40.729Z,4.85
2018-02-25T23:44:08.440Z,10.70
2018-02-25T23:46:36.128Z,3.30
2018-02-25T23:49:03.861Z,5.12
2018-02-25T23:51:31.626Z,3.25
2018-02-25T23:53:59.332Z,3.62
2018-02-25T23:56:27.020Z,4.43
2018-02-25T23:58:54.724Z,4.22
